Latest Coastal Weather Observations for Nullarbor

IDS60701

Issued at 2:31 pm CST Tuesday 30 August 2016 (issued every 10 minutes, with the page automatically refreshed every 10 minutes)

About coastal observations | Map of coastal stations | Coastal observations for SA | Marine services | Other Formats
Station Details ID: 018106 Name: NULLARBOR Lat: -31.45 Lon: 130.90 Height: 64.0 m
Data from the previous 72 hours. | See also: Recent months at Nullarbor
Date/Time
CST
Temp
°C
Wind Pressure Rain since
9am
mm
Weather Cloud Vis
km
Sea
Height
m
Swell
Dir  Spd
kts
Gust
kts
hPa Trend Height
m
Period
s
Dir
30/02:30pm 18.3 WSW 18 25 1014.1 - 0.0 - Partly cloudy 10 - - - -
30/02:00pm 18.1 WSW 17 22 1014.0 - 0.0 - Partly cloudy 10 - - - -
30/01:30pm 18.0 WSW 15 21 1014.1 - 0.0 - Partly cloudy 10 - - - -
30/01:00pm 17.9 W 16 21 1014.2 - 0.0 - Partly cloudy 10 - - - -
30/12:30pm 18.3 W 16 22 1014.4 - 0.0 - Partly cloudy 10 - - - -
30/12:00pm 18.4 WNW 15 22 1014.5 - 0.0 - Partly cloudy 10 - - - -
30/11:30am 17.1 W 14 19 1014.7 - 0.0 - Partly cloudy 10 - - - -
30/11:00am 15.9 W 14 19 1014.6 - 0.0 - Partly cloudy 10 - - - -
30/10:30am 15.1 W 17 22 1014.6 - 0.0 - Partly cloudy 10 - - - -
30/10:00am 14.7 W 16 21 1014.4 - 0.0 - Partly cloudy 10 - - - -
30/09:30am 13.9 WNW 15 19 1014.2 - 0.0 - Partly cloudy 10 - - - -
30/09:00am 13.3 WNW 16 20 1014.0 - 0.0 - Mostly clear 10 - - - -
30/08:38am 13.0 WNW 15 21 1013.6 - 0.0 - Partly cloudy 10 - - - -
30/08:30am 12.9 WNW 13 19 1013.5 - 0.0 - Partly cloudy 10 - - - -
30/08:00am 11.9 W 17 23 1013.2 - 0.0 - Cloudy 10 - - - -
30/07:30am 10.9 W 12 18 1012.6 - 0.0 - Partly cloudy 10 - - - -
30/07:04am 8.0 WNW 7 8 1012.1 - 0.0 - Partly cloudy 10 - - - -
30/07:00am 7.9 WNW 7 8 1012.0 - 0.0 - Partly cloudy 10 - - - -
30/06:30am 8.3 NW 6 7 1011.4 - 0.0 - - 10 - - - -
30/06:00am 9.2 NW 8 9 1010.8 - 0.0 - - 10 - - - -
30/05:30am 9.7 NW 7 9 1010.4 - 0.0 - - 10 - - - -
30/05:00am 10.7 WNW 9 10 1010.2 - 0.0 - - 10 - - - -
30/04:30am 11.4 NW 9 10 1009.9 - 0.0 - Partly cloudy 10 - - - -
30/04:00am 11.8 NW 9 11 1009.8 - 0.0 - Cloudy 10 - - - -
30/03:30am 12.1 NW 9 12 1009.8 - 0.0 - Cloudy 10 - - - -
30/03:00am 11.3 NW 10 13 1009.9 - 0.0 - Partly cloudy 10 - - - -
30/02:30am 10.5 NW 9 11 1010.0 - 0.0 - - 10 - - - -
30/02:00am 10.0 NNW 8 9 1010.0 - 0.0 - - 10 - - - -
30/01:30am 9.9 NW 8 9 1010.0 - 0.0 - - 10 - - - -
30/01:00am 9.2 NNW 8 9 1009.9 - 0.0 - - 10 - - - -
30/12:30am 9.4 NW 8 9 1009.9 - 0.0 - - 10 - - - -
30/12:00am 11.0 NW 8 9 1009.9 - 0.0 - Mostly clear 10 - - - -
 
Date/Time
CST
Temp
°C
Wind Pressure Rain since
9am
mm
Weather Cloud Vis
km
Sea
Height
m
Swell
Dir  Spd
kts
Gust
kts
hPa Trend Height
m
Period
s
Dir
29/11:30pm 11.3 NW 6 7 1009.9 - 0.0 - - 10 - - - -
29/11:00pm 12.8 WNW 8 9 1010.0 - 0.0 - - 10 - - - -
29/10:30pm 13.8 NW 9 13 1009.9 - 0.0 - - 10 - - - -
29/10:00pm 12.9 NNW 8 9 1009.8 - 0.0 - - 10 - - - -
29/09:30pm 15.2 NW 8 9 1009.6 - 0.0 - Partly cloudy 10 - - - -
29/09:00pm 16.2 NW 8 10 1009.5 - 0.0 - Partly cloudy 10 - - - -
29/08:30pm 16.7 NW 8 10 1009.1 - 0.0 - Cloudy 10 - - - -
29/08:00pm 17.1 NW 8 10 1008.7 - 0.0 - Partly cloudy 10 - - - -
29/07:30pm 17.0 NW 8 9 1008.4 - 0.0 - Partly cloudy 10 - - - -
29/07:00pm 17.7 NW 8 11 1008.0 - 0.0 - Partly cloudy 10 - - - -
29/06:30pm 19.1 NW 13 17 1007.5 - 0.0 - Partly cloudy 10 - - - -
29/06:00pm 20.0 NW 14 19 1006.9 - 0.0 - Mostly clear 10 - - - -
29/05:30pm 20.3 NW 14 20 1006.4 - 0.0 - - 10 - - - -
29/05:00pm 21.4 NW 17 22 1005.9 - 0.0 - Partly cloudy 10 - - - -
29/04:30pm 21.0 NW 17 23 1005.7 - 0.0 - Partly cloudy 10 - - - -
29/04:00pm 20.7 NW 18 26 1005.8 - 0.0 - Partly cloudy 10 - - - -
29/03:30pm 20.8 NW 16 27 1005.9 - 0.0 - Partly cloudy 10 - - - -
29/03:01pm 21.6 NW 16 27 1005.8 - 0.0 - Partly cloudy 10 - - - -
29/03:00pm 21.8 NW 16 22 1005.8 - 0.0 - Mostly clear 10 - - - -
29/02:40pm 22.0 NW 17 27 1005.9 - 0.0 - Partly cloudy 10 - - - -
29/02:30pm 21.4 NW 17 23 1005.9 - 0.0 - Partly cloudy 10 - - - -
29/02:02pm 21.2 NW 17 27 1006.2 - 0.0 - Partly cloudy 10 - - - -
29/02:00pm 22.0 NW 17 23 1006.2 - 0.0 - Partly cloudy 10 - - - -
29/01:30pm 20.6 NNW 19 26 1006.4 - 0.0 - - 10 - - - -
29/01:00pm 20.1 NNW 19 27 1006.9 - 0.0 - - 10 - - - -
29/12:52pm 20.1 NNW 17 27 1007.1 - 0.0 - - 10 - - - -
29/12:30pm 19.3 NNW 18 25 1007.5 - 0.0 - - 10 - - - -
29/12:00pm 19.9 NW 17 31 1007.8 - 0.0 - - 10 - - - -
29/11:47am 19.7 NNW 18 28 1008.0 - 0.0 - - 10 - - - -
29/11:30am 19.0 NNW 18 25 1008.1 - 0.0 - - 10 - - - -
29/11:00am 18.3 NW 16 23 1008.4 - 0.0 - - 10 - - - -
29/10:30am 17.6 NNW 16 23 1008.4 - 0.0 - - 10 - - - -
29/10:00am 16.7 NW 17 21 1008.7 - 0.0 - - 10 - - - -
29/09:30am 15.9 NNW 16 20 1008.8 - 0.0 - - 10 - - - -
29/09:00am 14.6 NNW 15 21 1008.7 - 0.0 - - 10 - - - -
29/08:30am 13.3 NNW 15 18 1008.5 - 0.0 - - 10 - - - -
29/08:00am 11.7 NNW 11 14 1008.1 - 0.0 - - 10 - - - -
29/07:30am 9.9 NNW 9 13 1007.9 - 0.0 - - 10 - - - -
29/07:00am 9.8 NNW 10 12 1007.6 - 0.0 - - 10 - - - -
29/06:30am 9.6 NNW 10 11 1007.4 - 0.0 - - 10 - - - -
29/06:00am 9.6 N 10 13 1007.3 - 0.0 - - 10 - - - -
29/05:30am 9.7 N 9 11 1007.2 - 0.0 - - 10 - - - -
29/05:00am 10.8 N 9 11 1006.7 - 0.0 - Partly cloudy 10 - - - -
29/04:30am 10.7 N 8 10 1006.4 - 0.0 - Cloudy 10 - - - -
29/04:00am 11.1 N 8 9 1006.4 - 0.0 - Partly cloudy 10 - - - -
29/03:30am 10.7 N 8 10 1006.4 - 0.0 - Partly cloudy 10 - - - -
29/03:00am 10.5 N 8 9 1006.6 - 0.0 - Partly cloudy 10 - - - -
29/02:30am 9.6 NNE 8 9 1006.7 - 0.0 - Partly cloudy 10 - - - -
29/02:00am 10.2 N 7 8 1006.8 - 0.0 - Partly cloudy 10 - - - -
29/01:30am 11.0 N 5 7 1006.8 - 0.0 - Partly cloudy 10 - - - -
29/01:00am 11.5 NNW 5 6 1006.9 - 0.0 - Partly cloudy 10 - - - -
29/12:30am 12.3 NW 6 7 1007.1 - 0.0 - - 10 - - - -
29/12:00am 13.7 NW 7 9 1006.7 - 0.0 - - 10 - - - -
 
Date/Time
CST
Temp
°C
Wind Pressure Rain since
9am
mm
Weather Cloud Vis
km
Sea
Height
m
Swell
Dir  Spd
kts
Gust
kts
hPa Trend Height
m
Period
s
Dir
28/11:30pm 15.7 WNW 10 12 1006.4 - 0.0 - Partly cloudy 10 - - - -
28/11:00pm 16.7 NNW 8 12 1006.4 - 0.0 - Partly cloudy 10 - - - -
28/10:30pm 16.5 NNW 9 12 1006.0 - 0.0 - Partly cloudy 10 - - - -
28/10:00pm 17.4 NNW 9 12 1005.9 - 0.0 - Partly cloudy 10 - - - -
28/09:30pm 17.6 N 11 13 1005.8 - 0.0 - Partly cloudy 10 - - - -
28/09:00pm 18.1 N 12 15 1006.2 - 0.0 - Partly cloudy 10 - - - -
28/08:30pm 18.0 N 11 13 1005.8 - 0.0 - - 10 - - - -
28/08:00pm 18.4 NNW 8 9 1005.5 - 0.0 - Partly cloudy 10 - - - -
28/07:30pm 19.9 NW 9 12 1004.9 - 0.0 - Partly cloudy 10 - - - -
28/07:00pm 20.1 NW 7 9 1004.5 - 0.0 - Partly cloudy 10 - - - -
28/06:30pm 21.1 NW 11 15 1004.2 - 0.0 - Partly cloudy 10 - - - -
28/06:00pm 21.3 NW 13 19 1004.2 - 0.0 - Cloudy 10 - - - -
28/05:30pm 21.4 NW 17 24 1004.1 - 0.0 - Partly cloudy 10 - - - -
28/05:11pm 21.7 NW 15 25 1003.9 - 0.0 - Partly cloudy 10 - - - -
28/05:00pm 22.3 NW 15 21 1003.8 - 0.0 - Partly cloudy 10 - - - -
28/04:30pm 21.6 NW 16 21 1003.7 - 0.0 - Partly cloudy 10 - - - -
28/04:00pm 20.5 WNW 16 21 1003.6 - 0.0 - Partly cloudy 10 - - - -
28/03:30pm 21.7 WNW 15 20 1003.1 - 0.0 - Partly cloudy 10 - - - -
28/03:03pm 22.8 NW 17 27 1003.5 - 0.0 - Partly cloudy 10 - - - -
28/03:00pm 23.6 NW 17 23 1003.4 - 0.0 - Mostly cloudy 10 - - - -
28/02:30pm 24.6 NW 16 23 1003.2 - 0.0 - Partly cloudy 10 - - - -
28/02:02pm 25.0 NW 17 30 1003.3 - 0.0 - Partly cloudy 10 - - - -
28/02:00pm 24.9 NW 17 24 1003.5 - 0.0 - Partly cloudy 10 - - - -
28/01:32pm 25.7 WNW 16 26 1003.8 - 0.0 - Partly cloudy 10 - - - -
28/01:30pm 25.5 NW 15 23 1003.7 - 0.0 - Partly cloudy 10 - - - -
28/01:00pm 25.6 NW 15 21 1004.3 - 0.0 - - 10 - - - -
28/12:30pm 24.6 WNW 14 21 1004.5 - 0.0 - - 10 - - - -
28/12:00pm 23.7 WNW 14 18 1004.8 - 0.0 - Mostly clear 10 - - - -
28/11:30am 23.6 WNW 11 16 1004.5 - 0.0 - - 10 - - - -
28/11:00am 22.7 WNW 13 17 1004.7 - 0.0 - - 10 - - - -
28/10:30am 21.9 NW 12 18 1004.7 - 0.0 - - 10 - - - -
28/10:01am 21.5 NNW 17 28 1005.4 - 0.0 - Partly cloudy 10 - - - -
28/10:00am 21.5 NNW 17 25 1005.4 - 0.0 - Partly cloudy 10 - - - -
28/09:30am 19.6 NW 12 17 1005.2 - 0.0 - Partly cloudy 10 - - - -
28/09:00am 20.9 N 14 19 1004.9 - 0.0 - Cloudy 10 - - - -
28/08:30am 18.6 N 11 15 1004.6 - 0.0 - Partly cloudy 10 - - - -
28/08:00am 16.8 N 12 16 1004.7 - 0.0 - - 10 - - - -
28/07:30am 16.2 NNE 15 20 1003.9 - 0.0 - - 10 - - - -
28/07:00am 15.9 NNE 15 19 1003.4 - 0.0 - - 10 - - - -
28/06:30am 15.2 NE 13 17 1003.4 - 0.0 - - 10 - - - -
28/06:00am 13.5 NE 12 14 1003.8 - 0.0 - - 10 - - - -
28/05:30am 13.2 NE 12 15 1004.0 - 0.0 - - 10 - - - -
28/05:00am 13.5 NE 12 14 1004.2 - 0.0 - - 10 - - - -
28/04:30am 13.8 NNE 12 14 1004.4 - 0.0 - - 10 - - - -
28/04:00am 13.3 NNE 12 13 1004.9 - 0.0 - - 10 - - - -
28/03:30am 13.4 NE 11 13 1005.3 - 0.0 - - 10 - - - -
28/03:00am 14.1 NE 11 14 1005.7 - 0.0 - Partly cloudy 10 - - - -
28/02:30am 15.4 NNE 12 15 1006.2 - 0.0 - - 10 - - - -
28/02:00am 15.7 NE 11 14 1006.7 - 0.0 - - 10 - - - -
28/01:30am 15.4 NE 10 12 1007.4 - 0.0 - - 10 - - - -
28/01:00am 14.7 NE 9 11 1007.9 - 0.0 - - 10 - - - -
28/12:30am 14.5 NE 8 10 1008.4 - 0.0 - - 10 - - - -
28/12:00am 14.8 ENE 8 10 1008.7 - 0.0 - Cloudy 10 - - - -
 
Date/Time
CST
Temp
°C
Wind Pressure Rain since
9am
mm
Weather Cloud Vis
km
Sea
Height
m
Swell
Dir  Spd
kts
Gust
kts
hPa Trend Height
m
Period
s
Dir
27/11:30pm 15.7 NE 8 10 1009.2 - 0.0 - - 10 - - - -
27/11:00pm 16.2 NE 9 11 1009.4 - 0.0 - - 10 - - - -
27/10:30pm 16.7 NE 10 12 1009.7 - 0.0 - - 10 - - - -
27/10:00pm 17.1 NE 11 13 1010.1 - 0.0 - - 10 - - - -
27/09:30pm 17.1 NE 9 12 1010.3 - 0.0 - - 10 - - - -
27/09:00pm 17.6 NE 11 14 1010.2 - 0.0 - Cloudy 10 - - - -
27/08:30pm 17.4 NE 12 15 1010.1 - 0.0 - - 10 - - - -
27/08:00pm 17.4 NE 10 12 1010.2 - 0.0 - - 10 - - - -
27/07:30pm 17.4 NE 9 10 1010.4 - 0.0 - - 10 - - - -
27/07:00pm 18.1 NE 8 9 1010.4 - 0.0 - - 10 - - - -
27/06:30pm 19.4 NNE 8 9 1010.3 - 0.0 - - 10 - - - -
27/06:00pm 21.1 N 9 12 1010.4 - 0.0 - Partly cloudy 10 - - - -
27/05:30pm 21.8 N 11 14 1010.2 - 0.0 - - 10 - - - -
27/05:00pm 22.6 N 15 19 1010.4 - 0.0 - - 10 - - - -
27/04:30pm 22.8 N 14 19 1010.4 - 0.0 - - 10 - - - -
27/04:00pm 22.8 N 15 19 1010.8 - 0.0 - - 10 - - - -
27/03:30pm 23.4 N 15 20 1011.3 - 0.0 - - 10 - - - -
27/03:00pm 23.3 N 15 22 1011.4 - 0.0 - Mostly clear 10 - - - -

Other Formats:

Comma delimited format used in spreadsheet applications
http://www.bom.gov.au/fwo/IDS60701/IDS60701.94651.axf

JavaScript Object Notation format (JSON) in row-major order
http://www.bom.gov.au/fwo/IDS60701/IDS60701.94651.json